createdAt,value
2022-08-23T00:02:23.599Z,13.50
2022-08-23T00:05:07.407Z,13.50
2022-08-23T00:07:40.665Z,13.50
2022-08-23T00:10:12.145Z,13.50
2022-08-23T00:12:41.665Z,13.50
2022-08-23T00:15:11.894Z,13.50
2022-08-23T00:17:39.643Z,13.40
2022-08-23T00:20:10.692Z,13.40
2022-08-23T00:22:40.023Z,13.40
2022-08-23T00:25:10.423Z,13.40
2022-08-23T00:27:37.527Z,13.40
2022-08-23T00:30:09.331Z,13.40
2022-08-23T00:32:38.089Z,13.40
2022-08-23T00:35:06.706Z,13.40
2022-08-23T00:37:34.165Z,13.40
2022-08-23T00:40:02.222Z,13.40
2022-08-23T00:42:57.186Z,13.40
2022-08-23T00:46:09.390Z,13.40
2022-08-23T00:48:38.565Z,13.40
2022-08-23T00:51:19.497Z,13.50
2022-08-23T00:53:55.562Z,13.40
2022-08-23T00:56:25.663Z,13.30
2022-08-23T00:58:54.837Z,13.30
2022-08-23T01:01:24.558Z,13.30
2022-08-23T01:04:04.025Z,13.30
2022-08-23T01:06:58.412Z,13.30
2022-08-23T01:09:25.512Z,13.20
2022-08-23T01:12:33.036Z,13.20
2022-08-23T01:15:36.269Z,13.20
2022-08-23T01:18:10.225Z,13.20
2022-08-23T01:21:01.380Z,13.10
2022-08-23T01:23:44.600Z,13.10
2022-08-23T01:26:15.493Z,13.10
2022-08-23T01:28:49.770Z,13.00
2022-08-23T01:31:18.573Z,13.00
2022-08-23T01:33:51.619Z,12.90
2022-08-23T01:36:18.571Z,12.90
2022-08-23T01:38:45.472Z,13.00
2022-08-23T01:41:12.905Z,13.00
2022-08-23T01:43:40.288Z,12.90
2022-08-23T01:46:18.543Z,12.80
2022-08-23T01:48:48.683Z,12.80
2022-08-23T01:51:19.318Z,12.80
2022-08-23T02:39:43.542Z,12.10
2022-08-23T02:42:11.626Z,12.00
2022-08-23T02:44:39.701Z,12.00
2022-08-23T02:47:11.881Z,11.90
2022-08-23T02:49:38.946Z,11.90
2022-08-23T02:52:07.283Z,11.80
2022-08-23T02:54:35.775Z,11.70
2022-08-23T02:57:02.793Z,11.70
2022-08-23T02:59:29.700Z,11.60
2022-08-23T03:01:56.626Z,11.60
2022-08-23T03:04:24.630Z,11.60
2022-08-23T03:06:51.517Z,11.60
2022-08-23T03:09:18.361Z,11.60
2022-08-23T03:11:49.904Z,11.60
2022-08-23T03:14:17.117Z,11.50
2022-08-23T03:16:44.361Z,11.40
2022-08-23T03:19:11.521Z,11.30
2022-08-23T03:21:38.642Z,11.30
2022-08-23T03:24:10.184Z,11.40
2022-08-23T03:26:38.394Z,11.30
2022-08-23T03:29:05.284Z,11.30
2022-08-23T03:31:32.236Z,11.30
2022-08-23T03:33:59.073Z,11.20
2022-08-23T03:36:27.905Z,11.20
2022-08-23T03:38:56.034Z,11.20
2022-08-23T03:41:23.168Z,11.20
2022-08-23T03:43:50.520Z,11.10
2022-08-23T03:46:23.721Z,11.00
2022-08-23T03:48:53.758Z,10.90
2022-08-23T03:51:22.113Z,10.80
2022-08-23T03:53:49.978Z,10.80
2022-08-23T03:56:36.788Z,10.80
2022-08-23T03:59:11.456Z,10.80
2022-08-23T04:01:38.354Z,10.80
2022-08-23T04:04:05.317Z,10.80
2022-08-23T04:06:33.065Z,10.80
2022-08-23T04:09:00.129Z,10.80
2022-08-23T04:11:27.627Z,10.80
2022-08-23T04:13:54.512Z,10.80
2022-08-23T04:16:21.708Z,10.80
2022-08-23T04:18:49.641Z,10.70
2022-08-23T04:21:22.408Z,10.70
2022-08-23T04:23:49.842Z,10.70
2022-08-23T04:26:16.720Z,10.70
2022-08-23T04:28:43.625Z,10.70
2022-08-23T04:31:10.752Z,10.70
2022-08-23T04:33:40.368Z,10.70
2022-08-23T04:36:07.879Z,10.70
2022-08-23T04:38:34.971Z,10.70
2022-08-23T04:41:20.720Z,10.70
2022-08-23T04:43:48.173Z,10.70
2022-08-23T04:46:16.924Z,10.70
2022-08-23T04:48:45.625Z,10.70
2022-08-23T04:51:13.851Z,10.60
2022-08-23T04:53:41.016Z,10.70
2022-08-23T04:56:09.205Z,10.70
2022-08-23T04:58:38.631Z,10.70
2022-08-23T05:01:10.918Z,10.80
2022-08-23T05:03:38.704Z,10.90
2022-08-23T05:06:05.941Z,10.90
2022-08-23T05:08:33.520Z,10.90
2022-08-23T05:11:03.066Z,10.90
2022-08-23T05:13:30.405Z,11.00
2022-08-23T05:15:59.834Z,11.00
2022-08-23T05:18:27.472Z,11.10
2022-08-23T05:20:54.451Z,11.20
2022-08-23T05:23:23.593Z,11.30
2022-08-23T05:26:00.132Z,11.30
2022-08-23T05:28:33.437Z,11.50
2022-08-23T05:31:13.001Z,11.60
2022-08-23T05:33:41.587Z,11.70
2022-08-23T05:36:11.363Z,11.80
2022-08-23T05:38:39.951Z,11.90
2022-08-23T05:41:07.698Z,12.10
2022-08-23T05:43:35.540Z,12.10
2022-08-23T05:46:12.918Z,12.30
2022-08-23T05:48:49.154Z,12.30
2022-08-23T05:51:26.627Z,12.20
2022-08-23T05:53:56.825Z,12.20
2022-08-23T05:56:27.840Z,12.30
2022-08-23T05:58:59.956Z,12.70
2022-08-23T06:01:29.322Z,13.00
2022-08-23T06:03:58.234Z,13.30
2022-08-23T06:06:37.214Z,13.60
2022-08-23T06:09:08.344Z,13.80
2022-08-23T06:11:36.426Z,14.10
2022-08-23T06:14:07.338Z,14.40
2022-08-23T06:16:47.473Z,14.50
2022-08-23T06:19:15.585Z,14.70
2022-08-23T06:21:43.488Z,15.00
2022-08-23T06:24:12.221Z,15.30
2022-08-23T06:26:44.586Z,15.40
2022-08-23T06:29:17.989Z,15.50
2022-08-23T06:31:49.438Z,15.60
2022-08-23T06:34:32.277Z,16.00
2022-08-23T06:37:04.668Z,16.40
2022-08-23T06:39:36.907Z,16.80
2022-08-23T06:42:37.168Z,16.90
2022-08-23T06:44:59.505Z,17.00
2022-08-23T06:47:26.749Z,17.20
2022-08-23T06:49:57.904Z,17.60
2022-08-23T06:52:27.447Z,17.90
2022-08-23T06:54:55.663Z,18.40
2022-08-23T06:57:24.853Z,18.80
2022-08-23T06:59:51.672Z,19.10
2022-08-23T07:02:18.636Z,19.30
2022-08-23T07:04:45.619Z,19.60
2022-08-23T07:07:12.690Z,20.00
2022-08-23T07:09:41.206Z,20.20
2022-08-23T07:12:08.999Z,20.40
2022-08-23T07:14:38.057Z,20.70
2022-08-23T07:17:05.563Z,20.70
2022-08-23T07:19:34.837Z,20.90
2022-08-23T07:22:04.443Z,20.80
2022-08-23T07:24:33.589Z,21.00
2022-08-23T07:27:06.790Z,21.20
2022-08-23T07:29:34.837Z,21.30
2022-08-23T07:32:01.765Z,21.40
2022-08-23T07:34:28.820Z,21.20
2022-08-23T07:36:55.647Z,21.20
2022-08-23T07:39:23.886Z,21.60
2022-08-23T07:41:52.596Z,21.60
2022-08-23T07:44:22.465Z,21.60
2022-08-23T07:46:54.348Z,21.80
2022-08-23T07:49:21.610Z,21.30
2022-08-23T07:51:50.870Z,21.80
2022-08-23T07:54:21.172Z,22.00
2022-08-23T07:56:48.273Z,22.40
2022-08-23T07:59:15.257Z,22.70
2022-08-23T08:01:44.006Z,22.60
2022-08-23T08:04:12.571Z,22.40
2022-08-23T08:06:59.847Z,22.30
2022-08-23T08:09:34.787Z,22.70
2022-08-23T08:12:01.728Z,23.00
2022-08-23T08:14:28.569Z,23.10
2022-08-23T08:16:58.644Z,23.10
2022-08-23T08:19:25.701Z,23.20
2022-08-23T08:21:53.189Z,23.20
2022-08-23T08:24:20.118Z,23.20
2022-08-23T08:26:47.832Z,22.90
2022-08-23T08:29:15.096Z,23.00
2022-08-23T08:31:45.270Z,23.20
2022-08-23T08:34:12.944Z,23.20
2022-08-23T08:36:47.887Z,23.20
2022-08-23T08:39:21.210Z,23.40
2022-08-23T08:42:05.301Z,23.60
2022-08-23T08:44:34.957Z,24.00
2022-08-23T08:47:35.624Z,24.30
2022-08-23T08:50:24.097Z,24.40
2022-08-23T08:53:03.807Z,24.40
2022-08-23T08:55:38.705Z,24.60
2022-08-23T08:58:07.356Z,24.80
2022-08-23T09:00:38.698Z,24.30
2022-08-23T09:03:20.465Z,24.60
2022-08-23T09:06:40.456Z,24.70
2022-08-23T09:09:29.053Z,24.30
2022-08-23T09:12:13.031Z,24.50
2022-08-23T09:15:01.884Z,24.50
2022-08-23T09:17:54.760Z,23.80
2022-08-23T09:20:27.987Z,23.80
2022-08-23T09:23:20.006Z,24.30
2022-08-23T09:25:54.677Z,24.60
2022-08-23T09:28:21.678Z,24.60
2022-08-23T09:30:52.942Z,24.50
2022-08-23T09:33:46.399Z,24.80
2022-08-23T09:36:23.268Z,25.00
2022-08-23T09:39:16.915Z,24.60
2022-08-23T09:41:45.199Z,24.90
2022-08-23T09:44:16.348Z,25.10
2022-08-23T09:46:44.058Z,25.30
2022-08-23T09:49:27.705Z,25.00
2022-08-23T09:51:59.864Z,25.30
2022-08-23T09:54:33.872Z,25.70
2022-08-23T09:57:10.211Z,25.60
2022-08-23T09:59:46.922Z,25.20
2022-08-23T10:02:27.506Z,25.00
2022-08-23T10:05:16.027Z,25.20
2022-08-23T10:07:53.515Z,25.10
2022-08-23T10:10:32.416Z,25.20
2022-08-23T10:13:00.351Z,25.80
2022-08-23T10:15:38.531Z,26.00
2022-08-23T10:18:20.668Z,26.00
2022-08-23T10:21:06.248Z,25.40
2022-08-23T10:23:46.156Z,26.00
2022-08-23T10:26:28.408Z,25.20
2022-08-23T10:29:25.689Z,25.20
2022-08-23T10:32:24.399Z,25.80
2022-08-23T10:35:23.901Z,26.00
2022-08-23T10:38:28.000Z,26.60
2022-08-23T10:41:08.541Z,26.40
2022-08-23T10:44:25.974Z,27.00
2022-08-23T10:47:05.956Z,26.90
2022-08-23T10:49:37.817Z,26.80
2022-08-23T10:52:09.969Z,26.60
2022-08-23T10:54:59.884Z,27.00
2022-08-23T10:57:36.386Z,27.20
2022-08-23T11:00:20.965Z,27.40
2022-08-23T11:02:56.119Z,27.90
2022-08-23T11:05:29.111Z,28.00
2022-08-23T11:08:04.093Z,27.60
2022-08-23T11:10:41.653Z,27.60
2022-08-23T11:13:27.898Z,28.40
2022-08-23T11:16:29.229Z,28.30
2022-08-23T11:18:56.141Z,27.90
2022-08-23T11:21:25.978Z,27.70
2022-08-23T11:23:59.618Z,27.40
2022-08-23T11:26:26.358Z,27.00
2022-08-23T11:28:56.841Z,27.30
2022-08-23T11:31:38.755Z,27.40
2022-08-23T11:34:29.342Z,27.60
2022-08-23T11:37:24.675Z,27.90
2022-08-23T11:40:00.663Z,28.40
2022-08-23T11:42:42.562Z,28.50
2022-08-23T11:45:37.350Z,28.10
2022-08-23T11:48:35.275Z,28.10
2022-08-23T11:51:12.277Z,28.90
2022-08-23T11:54:21.745Z,28.40
2022-08-23T11:57:15.314Z,28.30
2022-08-23T11:59:47.910Z,28.80
2022-08-23T12:03:02.505Z,29.40
2022-08-23T12:05:38.282Z,29.70
2022-08-23T12:08:05.789Z,29.60
2022-08-23T12:10:41.230Z,29.90
2022-08-23T12:13:22.947Z,29.50
2022-08-23T12:16:16.893Z,30.00
2022-08-23T12:18:47.947Z,30.30
2022-08-23T12:21:24.454Z,30.40
2022-08-23T12:24:01.417Z,30.20
2022-08-23T12:26:39.952Z,29.60
2022-08-23T12:29:29.797Z,29.40
2022-08-23T12:32:20.674Z,29.90
2022-08-23T12:35:09.956Z,29.80
2022-08-23T12:37:55.558Z,30.30
2022-08-23T12:40:32.000Z,29.60
2022-08-23T12:43:27.802Z,29.60
2022-08-23T12:46:01.304Z,29.50
2022-08-23T12:48:32.814Z,30.00
2022-08-23T12:51:10.014Z,30.30
2022-08-23T12:53:45.139Z,30.60
2022-08-23T12:56:31.614Z,30.80
2022-08-23T12:59:05.125Z,30.30
2022-08-23T13:01:37.209Z,30.40
2022-08-23T13:04:13.178Z,30.50
2022-08-23T13:06:57.193Z,30.80
2022-08-23T13:09:31.398Z,30.90
2022-08-23T13:11:59.127Z,30.70
2022-08-23T13:14:32.092Z,31.20
2022-08-23T13:17:26.304Z,31.20
2022-08-23T13:19:54.468Z,31.00
2022-08-23T13:22:24.213Z,31.10
2022-08-23T13:25:31.837Z,31.30
2022-08-23T13:28:27.377Z,31.40
2022-08-23T13:31:05.095Z,31.60
2022-08-23T13:33:32.494Z,31.50
2022-08-23T13:36:21.537Z,32.10
2022-08-23T13:38:49.520Z,32.90
2022-08-23T13:41:35.607Z,33.40
2022-08-23T13:44:08.485Z,33.80
2022-08-23T13:46:44.545Z,34.50
2022-08-23T13:49:18.392Z,35.50
2022-08-23T13:52:32.964Z,34.90
2022-08-23T13:54:51.027Z,35.30
2022-08-23T13:57:21.016Z,35.70
2022-08-23T13:59:55.999Z,36.00
2022-08-23T14:02:24.625Z,36.20
2022-08-23T14:04:52.347Z,36.00
2022-08-23T14:07:19.383Z,36.10
2022-08-23T14:09:46.355Z,35.20
2022-08-23T14:12:18.640Z,35.70
2022-08-23T14:14:46.437Z,36.70
2022-08-23T14:17:16.403Z,36.60
2022-08-23T14:22:34.417Z,37.50
2022-08-23T14:25:01.562Z,37.50
2022-08-23T14:27:28.514Z,36.60
2022-08-23T14:29:55.337Z,36.30
2022-08-23T14:32:22.486Z,36.70
2022-08-23T14:34:49.638Z,36.80
2022-08-23T14:40:05.148Z,38.50
2022-08-23T14:42:32.286Z,38.70
2022-08-23T14:45:00.209Z,37.90
2022-08-23T14:47:27.730Z,37.90
2022-08-23T14:49:54.608Z,37.30
2022-08-23T14:52:22.565Z,38.10
2022-08-23T14:54:50.944Z,38.70
2022-08-23T14:57:18.387Z,38.70
2022-08-23T14:59:45.487Z,37.70
2022-08-23T15:02:18.142Z,38.40
2022-08-23T15:04:45.010Z,38.20
2022-08-23T15:07:18.099Z,38.20
2022-08-23T15:09:48.818Z,38.80
2022-08-23T15:15:21.906Z,41.10
2022-08-23T15:18:03.657Z,41.70
2022-08-23T15:20:37.777Z,40.70
2022-08-23T15:23:08.246Z,40.50
2022-08-23T15:25:43.732Z,39.20
2022-08-23T15:28:14.366Z,37.60
2022-08-23T15:30:44.051Z,38.00
2022-08-23T15:33:13.567Z,38.80
2022-08-23T15:35:49.573Z,38.40
2022-08-23T15:38:19.377Z,36.80
2022-08-23T15:40:47.620Z,35.10
2022-08-23T15:43:17.067Z,33.80
2022-08-23T15:45:44.032Z,32.70
2022-08-23T15:48:30.156Z,31.60
2022-08-23T15:50:58.721Z,30.70
2022-08-23T15:53:26.190Z,29.40
2022-08-23T15:55:53.633Z,28.60
2022-08-23T15:58:25.632Z,27.90
2022-08-23T16:00:54.312Z,27.60
2022-08-23T16:03:22.783Z,27.60
2022-08-23T16:05:53.916Z,27.30
2022-08-23T16:08:39.993Z,27.20
2022-08-23T16:11:12.194Z,27.20
2022-08-23T16:13:42.668Z,27.10
2022-08-23T16:16:32.394Z,27.10
2022-08-23T16:19:01.992Z,26.90
2022-08-23T16:21:31.077Z,26.30
2022-08-23T16:23:58.830Z,26.10
2022-08-23T16:26:35.271Z,26.00
2022-08-23T16:29:08.119Z,25.90
2022-08-23T16:31:40.559Z,25.70
2022-08-23T16:34:21.293Z,25.50
2022-08-23T16:36:57.809Z,25.50
2022-08-23T16:39:28.255Z,25.60
2022-08-23T16:41:56.230Z,25.60
2022-08-23T16:44:26.226Z,25.60
2022-08-23T16:46:53.396Z,25.40
2022-08-23T16:49:34.815Z,25.40
2022-08-23T16:52:02.557Z,25.30
2022-08-23T16:54:29.530Z,25.10
2022-08-23T16:56:56.694Z,25.00
2022-08-23T16:59:23.578Z,24.90
2022-08-23T17:01:56.012Z,24.70
2022-08-23T17:04:26.968Z,24.60
2022-08-23T17:06:59.184Z,24.40
2022-08-23T17:09:28.469Z,24.30
2022-08-23T17:11:58.076Z,24.10
2022-08-23T17:14:26.083Z,24.00
2022-08-23T17:16:53.367Z,23.90
2022-08-23T17:19:21.333Z,23.80
2022-08-23T17:21:48.899Z,23.70
2022-08-23T17:24:15.796Z,23.60
2022-08-23T17:26:42.927Z,23.50
2022-08-23T17:29:10.041Z,23.40
2022-08-23T17:31:37.828Z,23.30
2022-08-23T17:34:06.719Z,23.20
2022-08-23T17:36:51.024Z,23.00
2022-08-23T17:39:22.445Z,22.80
2022-08-23T17:41:49.644Z,22.60
2022-08-23T17:44:17.687Z,22.50
2022-08-23T17:46:46.348Z,22.30
2022-08-23T17:49:15.150Z,22.20
2022-08-23T17:51:42.376Z,22.00
2022-08-23T17:54:11.684Z,21.90
2022-08-23T17:56:50.105Z,21.70
2022-08-23T17:59:20.271Z,21.60
2022-08-23T18:01:47.117Z,21.40
2022-08-23T18:04:14.101Z,21.30
2022-08-23T18:06:41.121Z,21.10
2022-08-23T18:09:08.406Z,20.90
2022-08-23T18:11:35.995Z,20.80
2022-08-23T18:14:03.744Z,20.60
2022-08-23T18:16:35.335Z,20.50
2022-08-23T18:19:05.033Z,20.30
2022-08-23T18:21:33.064Z,20.10
2022-08-23T18:23:59.993Z,19.90
2022-08-23T18:26:46.451Z,19.70
2022-08-23T18:29:14.304Z,19.50
2022-08-23T18:31:44.158Z,19.40
2022-08-23T18:34:13.089Z,19.30
2022-08-23T18:36:40.974Z,19.20
2022-08-23T18:39:09.076Z,19.00
2022-08-23T18:41:36.173Z,18.90
2022-08-23T18:44:05.687Z,18.70
2022-08-23T18:46:39.705Z,18.60
2022-08-23T18:49:09.365Z,18.50
2022-08-23T18:51:37.038Z,18.30
2022-08-23T18:54:04.396Z,18.00
2022-08-23T18:56:31.462Z,17.80
2022-08-23T18:58:58.296Z,17.60
2022-08-23T19:01:29.395Z,17.70
2022-08-23T19:04:02.565Z,17.70
2022-08-23T19:06:30.261Z,17.70
2022-08-23T19:08:57.509Z,17.50
2022-08-23T19:11:25.547Z,17.40
2022-08-23T19:13:52.401Z,17.30
2022-08-23T19:16:21.786Z,17.20
2022-08-23T19:18:50.375Z,17.00
2022-08-23T19:21:21.552Z,16.90
2022-08-23T19:23:51.730Z,16.90
2022-08-23T19:26:25.643Z,16.90
2022-08-23T19:28:53.206Z,16.90
2022-08-23T19:31:20.189Z,16.90
2022-08-23T19:33:47.095Z,16.80
2022-08-23T19:36:35.685Z,16.80
2022-08-23T19:39:00.804Z,16.70
2022-08-23T19:41:27.892Z,16.60
2022-08-23T19:43:55.470Z,16.50
2022-08-23T19:46:22.672Z,16.40
2022-08-23T19:48:51.204Z,16.40
2022-08-23T19:51:20.086Z,16.30
2022-08-23T19:54:04.544Z,16.30
2022-08-23T19:56:45.859Z,16.20
2022-08-23T19:59:20.620Z,16.30
2022-08-23T20:01:52.889Z,16.20
2022-08-23T20:04:21.933Z,16.20
2022-08-23T20:06:49.115Z,16.20
2022-08-23T20:09:17.225Z,16.20
2022-08-23T20:11:44.231Z,16.20
2022-08-23T20:14:11.522Z,16.10
2022-08-23T20:16:40.870Z,16.10
2022-08-23T20:19:10.067Z,16.20
2022-08-23T20:21:38.840Z,16.10
2022-08-23T20:24:09.876Z,16.10
2022-08-23T20:26:44.056Z,16.00
2022-08-23T20:29:21.738Z,15.90
2022-08-23T20:31:57.348Z,15.90
2022-08-23T20:34:27.064Z,15.90
2022-08-23T20:36:56.488Z,15.90
2022-08-23T20:39:24.589Z,15.90
2022-08-23T20:41:53.130Z,15.90
2022-08-23T20:44:22.250Z,15.90
2022-08-23T20:46:53.916Z,16.00
2022-08-23T20:49:22.628Z,16.10
2022-08-23T20:51:49.927Z,16.10
2022-08-23T20:54:17.365Z,16.10
2022-08-23T20:56:44.250Z,16.10
2022-08-23T20:59:12.957Z,16.20
2022-08-23T21:01:39.888Z,16.10
2022-08-23T21:04:07.143Z,16.10
2022-08-23T21:06:45.917Z,16.10
2022-08-23T21:09:20.266Z,16.10
2022-08-23T21:11:49.233Z,16.20
2022-08-23T21:14:17.716Z,16.20
2022-08-23T21:16:46.536Z,16.30
2022-08-23T21:19:14.600Z,16.30
2022-08-23T21:21:42.621Z,16.20
2022-08-23T21:24:10.994Z,16.20
2022-08-23T21:26:38.205Z,16.20
2022-08-23T21:29:07.564Z,16.10
2022-08-23T21:31:35.034Z,16.10
2022-08-23T21:34:02.378Z,16.00
2022-08-23T21:36:29.423Z,15.80
2022-08-23T21:38:56.634Z,15.70
2022-08-23T21:41:41.438Z,15.60
2022-08-23T21:44:13.234Z,15.60
2022-08-23T21:46:41.442Z,15.60
2022-08-23T21:49:09.022Z,15.60
2022-08-23T21:51:39.641Z,15.60
2022-08-23T21:54:08.982Z,15.60
2022-08-23T21:56:37.128Z,15.60
2022-08-23T21:59:08.010Z,15.60
2022-08-23T22:01:36.236Z,15.60
2022-08-23T22:04:06.107Z,15.50
2022-08-23T22:06:33.470Z,15.50
2022-08-23T22:09:00.869Z,15.50
2022-08-23T22:11:28.375Z,15.40
2022-08-23T22:13:55.721Z,15.40
2022-08-23T22:16:22.715Z,15.40
2022-08-23T22:18:49.637Z,15.50
2022-08-23T22:21:16.458Z,15.60
2022-08-23T22:23:44.712Z,15.60
2022-08-23T22:26:13.767Z,15.60
2022-08-23T22:28:44.396Z,15.50
2022-08-23T22:31:15.129Z,15.50
2022-08-23T22:33:43.789Z,15.40
2022-08-23T22:36:16.694Z,15.40
2022-08-23T22:38:44.353Z,15.30
2022-08-23T22:41:16.103Z,15.30
2022-08-23T22:43:43.044Z,15.20
2022-08-23T22:46:10.860Z,15.20
2022-08-23T22:48:37.899Z,15.10
2022-08-23T22:51:19.295Z,15.10
2022-08-23T22:53:51.771Z,15.10
2022-08-23T22:56:32.415Z,15.00
2022-08-23T22:59:00.055Z,15.00
2022-08-23T23:15:00.265Z,14.80
2022-08-23T23:17:27.208Z,14.80
2022-08-23T23:20:12.522Z,14.70
2022-08-23T23:22:39.417Z,14.70
2022-08-23T23:25:06.826Z,14.70
2022-08-23T23:27:33.908Z,14.70
2022-08-23T23:30:00.782Z,14.70
2022-08-23T23:32:27.704Z,14.80
2022-08-23T23:34:54.558Z,14.80
2022-08-23T23:37:24.155Z,14.90
2022-08-23T23:39:51.053Z,14.90
2022-08-23T23:42:17.965Z,15.00
2022-08-23T23:44:44.844Z,15.00
2022-08-23T23:47:11.708Z,14.90
2022-08-23T23:49:38.598Z,14.90
2022-08-23T23:52:07.271Z,15.00
2022-08-23T23:54:35.729Z,15.00
2022-08-23T23:57:04.533Z,15.00
2022-08-23T23:59:32.474Z,15.00
